createdAt,value
2023-01-17T00:00:18.750Z,64.60
2023-01-17T00:01:52.463Z,64.70
2023-01-17T00:03:25.927Z,64.70
2023-01-17T00:05:16.735Z,64.70
2023-01-17T00:07:07.790Z,64.80
2023-01-17T00:08:58.608Z,64.90
2023-01-17T00:10:32.281Z,64.80
2023-01-17T00:12:08.031Z,65.10
2023-01-17T00:13:41.273Z,65.00
2023-01-17T00:15:16.646Z,64.90
2023-01-17T00:16:50.078Z,64.90
2023-01-17T00:18:24.582Z,64.80
2023-01-17T00:20:19.247Z,64.80
2023-01-17T00:22:13.010Z,65.00
2023-01-17T00:24:04.056Z,65.00
2023-01-17T00:25:59.826Z,65.00
2023-01-17T00:27:32.023Z,65.00
2023-01-17T00:29:04.112Z,64.90
2023-01-17T00:30:36.456Z,65.00
2023-01-17T00:32:08.531Z,65.10
2023-01-17T00:33:42.264Z,65.00
2023-01-17T00:35:15.332Z,65.00
2023-01-17T00:36:47.452Z,65.00
2023-01-17T00:38:22.025Z,64.90
2023-01-17T00:39:54.251Z,65.00
2023-01-17T00:41:29.156Z,64.90
2023-01-17T00:43:20.003Z,65.00
2023-01-17T00:45:10.911Z,65.00
2023-01-17T00:47:01.798Z,65.10
2023-01-17T00:48:53.471Z,65.10
2023-01-17T00:50:45.833Z,65.20
2023-01-17T00:52:36.906Z,65.10
2023-01-17T00:54:28.149Z,65.10
2023-01-17T00:56:20.014Z,65.10
2023-01-17T00:58:10.983Z,65.10
2023-01-17T01:00:02.633Z,65.00
2023-01-17T01:01:54.082Z,65.00
2023-01-17T01:03:44.828Z,65.00
2023-01-17T01:05:36.139Z,64.90
2023-01-17T01:07:28.198Z,65.00
2023-01-17T01:09:18.990Z,65.00
2023-01-17T01:11:10.181Z,64.90
2023-01-17T01:13:01.155Z,64.70
2023-01-17T01:14:52.186Z,64.60
2023-01-17T01:16:43.293Z,64.60
2023-01-17T01:18:34.202Z,64.70
2023-01-17T01:20:25.686Z,64.70
2023-01-17T01:22:16.774Z,64.80
2023-01-17T01:24:08.946Z,64.90
2023-01-17T01:25:59.791Z,64.90
2023-01-17T01:27:50.804Z,64.90
2023-01-17T01:29:41.636Z,65.00
2023-01-17T01:31:32.591Z,64.90
2023-01-17T01:33:21.494Z,64.90
2023-01-17T01:34:54.712Z,65.00
2023-01-17T01:36:27.996Z,64.90
2023-01-17T01:38:03.303Z,64.90
2023-01-17T01:39:38.136Z,65.00
2023-01-17T01:41:11.318Z,64.90
2023-01-17T01:42:51.632Z,64.90
2023-01-17T01:44:45.753Z,65.00
2023-01-17T01:46:25.441Z,65.00
2023-01-17T01:48:03.706Z,64.90
2023-01-17T01:49:37.471Z,64.90
2023-01-17T01:51:16.820Z,64.90
2023-01-17T01:52:58.505Z,64.90
2023-01-17T01:54:35.802Z,64.80
2023-01-17T01:56:15.836Z,64.90
2023-01-17T01:57:53.639Z,64.60
2023-01-17T01:59:27.440Z,64.50
2023-01-17T02:01:01.009Z,64.40
2023-01-17T02:02:35.308Z,64.30
2023-01-17T02:04:10.832Z,64.30
2023-01-17T02:05:44.993Z,64.30
2023-01-17T02:07:24.828Z,64.20
2023-01-17T02:09:04.338Z,64.20
2023-01-17T02:10:40.178Z,64.10
2023-01-17T02:12:15.551Z,64.00
2023-01-17T02:13:48.804Z,64.10
2023-01-17T02:15:28.997Z,64.00
2023-01-17T02:17:24.355Z,64.20
2023-01-17T02:19:22.350Z,64.10
2023-01-17T02:21:24.677Z,64.10
2023-01-17T02:24:30.850Z,64.20
2023-01-17T02:26:48.708Z,64.20
2023-01-17T02:28:46.926Z,64.20
2023-01-17T02:30:34.667Z,64.00
2023-01-17T02:32:16.339Z,64.00
2023-01-17T02:33:58.833Z,63.90
2023-01-17T02:35:41.774Z,64.10
2023-01-17T02:37:23.313Z,64.10
2023-01-17T02:39:08.446Z,64.20
2023-01-17T02:40:48.618Z,64.20
2023-01-17T02:42:27.944Z,64.20
2023-01-17T02:44:04.833Z,64.30
2023-01-17T02:45:38.325Z,64.30
2023-01-17T02:47:25.067Z,64.30
2023-01-17T02:49:00.251Z,64.60
2023-01-17T02:50:53.087Z,64.50
2023-01-17T02:52:54.532Z,64.70
2023-01-17T02:55:05.454Z,64.70
2023-01-17T02:57:14.671Z,64.70
2023-01-17T02:59:07.588Z,64.70
2023-01-17T03:00:54.276Z,64.60
2023-01-17T03:02:39.278Z,64.50
2023-01-17T03:04:18.350Z,64.50
2023-01-17T03:05:59.951Z,64.60
2023-01-17T03:07:34.050Z,64.60
2023-01-17T03:09:08.766Z,64.40
2023-01-17T03:10:42.892Z,64.30
2023-01-17T03:12:17.409Z,64.10
2023-01-17T03:13:57.642Z,63.90
2023-01-17T03:15:30.778Z,64.00
2023-01-17T03:17:04.317Z,63.90
2023-01-17T03:18:37.633Z,64.00
2023-01-17T03:20:12.352Z,63.90
2023-01-17T03:21:45.758Z,63.80
2023-01-17T03:23:19.057Z,63.90
2023-01-17T03:24:53.001Z,63.50
2023-01-17T03:26:26.384Z,63.50
2023-01-17T03:28:00.982Z,63.60
2023-01-17T03:29:34.141Z,63.70
2023-01-17T03:31:07.640Z,63.70
2023-01-17T03:32:40.245Z,63.70
2023-01-17T03:34:13.616Z,63.80
2023-01-17T03:35:47.531Z,63.80
2023-01-17T03:37:20.947Z,64.00
2023-01-17T03:38:54.140Z,64.00
2023-01-17T03:40:27.866Z,63.90
2023-01-17T03:42:01.007Z,63.80
2023-01-17T03:43:35.666Z,63.70
2023-01-17T03:45:10.426Z,63.50
2023-01-17T03:46:44.625Z,63.40
2023-01-17T03:48:18.554Z,63.20
2023-01-17T03:49:52.657Z,63.30
2023-01-17T03:51:26.145Z,63.40
2023-01-17T03:52:59.243Z,63.50
2023-01-17T03:54:31.672Z,63.40
2023-01-17T03:56:05.160Z,63.40
2023-01-17T03:57:38.607Z,64.30
2023-01-17T03:59:13.404Z,63.50
2023-01-17T04:00:46.847Z,63.60
2023-01-17T04:02:20.855Z,63.60
2023-01-17T04:03:54.341Z,63.60
2023-01-17T04:05:27.523Z,63.80
2023-01-17T04:06:59.777Z,63.90
2023-01-17T04:08:33.006Z,64.10
2023-01-17T04:10:08.255Z,64.10
2023-01-17T04:11:41.713Z,64.10
2023-01-17T04:13:16.622Z,64.20
2023-01-17T04:14:50.163Z,64.20
2023-01-17T04:16:29.480Z,64.30
2023-01-17T04:18:04.660Z,64.30
2023-01-17T04:19:38.481Z,64.20
2023-01-17T04:21:11.976Z,64.30
2023-01-17T04:22:45.493Z,64.30
2023-01-17T04:24:18.831Z,64.40
2023-01-17T04:25:52.167Z,64.40
2023-01-17T04:27:25.480Z,64.30
2023-01-17T04:28:58.834Z,64.40
2023-01-17T04:30:33.977Z,64.50
2023-01-17T04:32:07.178Z,64.40
2023-01-17T04:33:40.318Z,64.30
2023-01-17T04:35:13.639Z,65.20
2023-01-17T04:36:46.973Z,64.40
2023-01-17T04:38:20.284Z,64.30
2023-01-17T04:39:53.402Z,64.30
2023-01-17T04:41:29.379Z,64.40
2023-01-17T04:43:02.759Z,64.30
2023-01-17T04:44:36.026Z,64.20
2023-01-17T04:46:10.782Z,64.40
2023-01-17T04:47:44.892Z,64.40
2023-01-17T04:49:18.143Z,64.50
2023-01-17T04:50:52.107Z,64.60
2023-01-17T04:52:25.321Z,64.70
2023-01-17T04:53:58.414Z,64.60
2023-01-17T04:55:31.697Z,64.50
2023-01-17T04:57:05.089Z,64.50
2023-01-17T04:58:38.335Z,64.40
2023-01-17T05:00:13.126Z,64.40
2023-01-17T05:01:49.665Z,64.40
2023-01-17T05:03:25.023Z,64.30
2023-01-17T05:04:58.269Z,64.40
2023-01-17T05:06:31.677Z,64.30
2023-01-17T05:08:05.005Z,64.30
2023-01-17T05:09:38.204Z,64.30
2023-01-17T05:11:11.525Z,64.30
2023-01-17T05:12:44.895Z,64.30
2023-01-17T05:14:18.102Z,64.10
2023-01-17T05:15:51.505Z,64.10
2023-01-17T05:17:26.059Z,64.10
2023-01-17T05:18:59.411Z,64.00
2023-01-17T05:20:32.843Z,63.90
2023-01-17T05:22:15.221Z,63.80
2023-01-17T05:23:48.643Z,63.80
2023-01-17T05:25:21.518Z,63.70
2023-01-17T05:26:54.929Z,63.80
2023-01-17T05:28:28.088Z,63.70
2023-01-17T05:30:01.229Z,63.90
2023-01-17T05:31:34.536Z,64.00
2023-01-17T05:33:10.135Z,64.10
2023-01-17T05:34:43.358Z,64.10
2023-01-17T05:36:16.726Z,64.10
2023-01-17T05:37:50.551Z,64.00
2023-01-17T05:39:23.884Z,64.00
2023-01-17T05:40:59.627Z,63.90
2023-01-17T05:42:31.863Z,63.90
2023-01-17T05:44:05.584Z,63.90
2023-01-17T05:45:39.383Z,64.00
2023-01-17T05:47:12.551Z,64.10
2023-01-17T05:48:47.161Z,64.90
2023-01-17T05:50:27.372Z,63.90
2023-01-17T05:52:00.521Z,64.00
2023-01-17T05:53:33.743Z,63.80
2023-01-17T05:55:08.559Z,63.80
2023-01-17T05:56:41.810Z,63.80
2023-01-17T05:58:18.145Z,63.70
2023-01-17T05:59:51.284Z,63.80
2023-01-17T06:01:24.689Z,63.70
2023-01-17T06:03:00.842Z,63.60
2023-01-17T06:04:36.976Z,63.60
2023-01-17T06:06:10.294Z,63.50
2023-01-17T06:07:45.554Z,63.50
2023-01-17T06:09:18.785Z,63.60
2023-01-17T06:10:52.303Z,63.50
2023-01-17T06:12:25.695Z,63.60
2023-01-17T06:13:58.920Z,63.50
2023-01-17T06:15:32.385Z,63.60
2023-01-17T06:17:05.725Z,63.60
2023-01-17T06:18:39.766Z,63.60
2023-01-17T06:20:14.540Z,63.50
2023-01-17T06:21:47.836Z,63.50
2023-01-17T06:23:21.771Z,63.50
2023-01-17T06:24:55.034Z,63.50
2023-01-17T06:26:28.216Z,63.50
2023-01-17T06:28:03.663Z,63.50
2023-01-17T06:29:36.929Z,63.50
2023-01-17T06:31:10.902Z,63.60
2023-01-17T06:32:44.317Z,63.70
2023-01-17T06:34:17.703Z,63.60
2023-01-17T06:35:54.239Z,63.70
2023-01-17T06:37:27.646Z,63.60
2023-01-17T06:39:00.887Z,63.50
2023-01-17T06:40:34.584Z,63.50
2023-01-17T06:42:07.947Z,63.60
2023-01-17T06:43:41.309Z,63.50
2023-01-17T06:45:14.798Z,63.60
2023-01-17T06:46:48.533Z,63.80
2023-01-17T06:48:22.022Z,63.80
2023-01-17T06:50:03.368Z,63.80
2023-01-17T06:51:38.076Z,63.80
2023-01-17T06:53:11.505Z,63.90
2023-01-17T06:54:45.926Z,64.80
2023-01-17T06:56:19.122Z,64.00
2023-01-17T06:57:52.475Z,64.00
2023-01-17T06:59:25.705Z,64.00
2023-01-17T07:00:59.169Z,64.00
2023-01-17T07:02:32.517Z,64.00
2023-01-17T07:04:05.960Z,63.90
2023-01-17T07:05:41.654Z,63.80
2023-01-17T07:07:16.345Z,63.80
2023-01-17T07:08:49.859Z,63.80
2023-01-17T07:10:24.335Z,63.70
2023-01-17T07:12:01.778Z,63.50
2023-01-17T07:13:36.521Z,63.50
2023-01-17T07:15:11.810Z,63.40
2023-01-17T07:16:46.280Z,63.40
2023-01-17T07:18:23.156Z,63.30
2023-01-17T07:19:56.513Z,63.30
2023-01-17T07:21:29.898Z,63.20
2023-01-17T07:23:05.922Z,63.20
2023-01-17T07:24:39.204Z,63.20
2023-01-17T07:26:12.503Z,63.10
2023-01-17T07:27:46.340Z,63.10
2023-01-17T07:29:22.728Z,63.00
2023-01-17T07:30:57.261Z,63.00
2023-01-17T07:32:32.468Z,62.90
2023-01-17T07:34:05.635Z,62.80
2023-01-17T07:35:38.881Z,62.90
2023-01-17T07:37:14.325Z,62.90
2023-01-17T07:38:49.649Z,62.80
2023-01-17T07:40:25.434Z,62.70
2023-01-17T07:41:58.806Z,62.70
2023-01-17T07:43:32.022Z,62.90
2023-01-17T07:45:09.866Z,63.00
2023-01-17T07:46:43.269Z,63.10
2023-01-17T07:48:17.299Z,63.20
2023-01-17T07:49:50.398Z,63.30
2023-01-17T07:51:24.814Z,63.20
2023-01-17T07:52:58.245Z,63.30
2023-01-17T07:54:32.842Z,63.20
2023-01-17T07:56:08.695Z,63.20
2023-01-17T07:57:41.855Z,63.40
2023-01-17T07:59:15.119Z,63.10
2023-01-17T08:00:49.042Z,64.00
2023-01-17T08:02:24.924Z,63.20
2023-01-17T08:03:58.239Z,63.30
2023-01-17T08:05:32.031Z,63.30
2023-01-17T08:07:05.315Z,63.20
2023-01-17T08:08:38.807Z,63.00
2023-01-17T08:10:17.943Z,63.10
2023-01-17T08:11:51.274Z,63.10
2023-01-17T08:13:24.992Z,62.90
2023-01-17T08:14:58.139Z,62.90
2023-01-17T08:16:31.405Z,63.00
2023-01-17T08:18:04.809Z,63.00
2023-01-17T08:19:38.047Z,62.90
2023-01-17T08:21:16.779Z,63.00
2023-01-17T08:22:52.961Z,63.00
2023-01-17T08:24:26.266Z,63.00
2023-01-17T08:26:03.182Z,63.00
2023-01-17T08:27:36.575Z,62.90
2023-01-17T08:29:10.912Z,63.00
2023-01-17T08:30:44.728Z,63.00
2023-01-17T08:32:17.936Z,63.00
2023-01-17T08:33:51.167Z,63.00
2023-01-17T08:35:28.897Z,63.00
2023-01-17T08:37:02.229Z,62.90
2023-01-17T08:38:35.526Z,63.00
2023-01-17T08:40:11.025Z,63.00
2023-01-17T08:41:45.973Z,63.10
2023-01-17T08:43:19.783Z,63.00
2023-01-17T08:44:53.032Z,62.90
2023-01-17T08:46:26.822Z,63.10
2023-01-17T08:48:00.482Z,63.30
2023-01-17T08:49:34.249Z,63.40
2023-01-17T08:51:08.208Z,63.20
2023-01-17T08:52:41.454Z,63.50
2023-01-17T08:54:15.549Z,63.60
2023-01-17T08:55:49.244Z,63.60
2023-01-17T08:57:24.941Z,63.60
2023-01-17T08:58:58.882Z,63.50
2023-01-17T09:00:32.738Z,63.40
2023-01-17T09:02:14.728Z,63.30
2023-01-17T09:03:51.164Z,63.20
2023-01-17T09:05:24.900Z,63.10
2023-01-17T09:06:58.194Z,63.20
2023-01-17T09:08:31.643Z,63.10
2023-01-17T09:10:05.807Z,63.10
2023-01-17T09:11:39.860Z,63.10
2023-01-17T09:13:14.515Z,63.10
2023-01-17T09:14:47.888Z,63.00
2023-01-17T09:16:21.022Z,62.90
2023-01-17T09:17:57.214Z,62.90
2023-01-17T09:19:30.532Z,63.00
2023-01-17T09:21:12.809Z,63.00
2023-01-17T09:22:46.227Z,63.20
2023-01-17T09:24:19.501Z,63.20
2023-01-17T09:25:56.888Z,63.30
2023-01-17T09:27:30.305Z,63.50
2023-01-17T09:29:05.335Z,63.50
2023-01-17T09:30:38.762Z,63.50
2023-01-17T09:32:11.914Z,63.60
2023-01-17T09:33:45.211Z,63.50
2023-01-17T09:35:19.328Z,63.60
2023-01-17T09:36:52.608Z,63.60
2023-01-17T09:38:25.855Z,63.70
2023-01-17T09:39:58.999Z,63.80
2023-01-17T09:41:37.789Z,63.80
2023-01-17T09:43:23.911Z,63.70
2023-01-17T09:44:59.114Z,63.40
2023-01-17T09:46:39.889Z,63.40
2023-01-17T09:48:18.957Z,63.10
2023-01-17T09:49:57.483Z,62.80
2023-01-17T09:51:30.636Z,62.40
2023-01-17T09:53:06.921Z,61.70
2023-01-17T09:54:43.348Z,61.20
2023-01-17T09:56:22.286Z,60.90
2023-01-17T09:58:02.102Z,60.90
2023-01-17T10:00:02.873Z,60.90
2023-01-17T10:02:05.557Z,61.00
2023-01-17T10:03:52.797Z,61.00
2023-01-17T10:06:00.682Z,60.60
2023-01-17T10:07:46.754Z,60.80
2023-01-17T10:09:38.149Z,61.20
2023-01-17T10:11:37.334Z,61.10
2023-01-17T10:13:29.945Z,61.10
2023-01-17T10:15:34.405Z,61.20
2023-01-17T10:17:18.951Z,60.80
2023-01-17T10:19:24.449Z,60.90
2023-01-17T10:21:06.477Z,60.90
2023-01-17T10:22:59.086Z,61.10
2023-01-17T10:25:10.449Z,60.90
2023-01-17T10:26:49.064Z,60.70
2023-01-17T10:28:31.736Z,60.60
2023-01-17T10:30:24.439Z,61.30
2023-01-17T10:32:01.966Z,60.50
2023-01-17T10:33:45.563Z,60.40
2023-01-17T10:35:24.966Z,60.60
2023-01-17T10:37:12.412Z,60.60
2023-01-17T10:38:49.684Z,60.40
2023-01-17T10:40:36.006Z,60.50
2023-01-17T10:42:20.924Z,60.50
2023-01-17T10:44:20.606Z,60.60
2023-01-17T10:45:57.155Z,60.70
2023-01-17T10:47:37.302Z,60.80
2023-01-17T10:49:19.594Z,60.70
2023-01-17T10:51:03.660Z,60.90
2023-01-17T10:52:48.420Z,60.70
2023-01-17T10:54:41.442Z,60.60
2023-01-17T10:56:18.380Z,60.50
2023-01-17T10:57:54.345Z,60.60
2023-01-17T10:59:33.469Z,60.60
2023-01-17T11:01:18.567Z,60.50
2023-01-17T11:02:52.745Z,60.60
2023-01-17T11:04:38.945Z,60.70
2023-01-17T11:06:24.458Z,60.70
2023-01-17T11:08:03.147Z,60.90
2023-01-17T11:09:42.031Z,60.90
2023-01-17T11:11:15.511Z,60.90
2023-01-17T11:12:48.827Z,60.90
2023-01-17T11:14:26.900Z,60.80
2023-01-17T11:16:04.053Z,61.60
2023-01-17T11:17:42.372Z,60.70
2023-01-17T11:19:25.945Z,61.50
2023-01-17T11:21:16.354Z,60.90
2023-01-17T11:23:06.792Z,61.10
2023-01-17T11:24:48.031Z,61.10
2023-01-17T11:26:27.975Z,61.00
2023-01-17T11:28:05.733Z,60.90
2023-01-17T11:29:40.821Z,60.80
2023-01-17T11:31:27.961Z,60.60
2023-01-17T11:33:06.063Z,60.10
2023-01-17T11:34:39.408Z,60.30
2023-01-17T11:36:27.219Z,60.20
2023-01-17T11:38:07.558Z,60.20
2023-01-17T11:39:42.038Z,60.10
2023-01-17T11:41:22.211Z,60.20
2023-01-17T11:43:19.550Z,60.10
2023-01-17T11:44:53.381Z,60.30
2023-01-17T11:46:29.471Z,60.20
2023-01-17T11:48:18.372Z,60.20
2023-01-17T11:49:51.527Z,60.10
2023-01-17T11:51:31.555Z,60.00
2023-01-17T11:53:19.482Z,60.10
2023-01-17T11:54:56.104Z,60.20
2023-01-17T11:56:34.130Z,60.40
2023-01-17T11:58:07.354Z,60.30
2023-01-17T11:59:44.689Z,60.20
2023-01-17T12:01:33.832Z,60.30
2023-01-17T12:03:26.032Z,60.30
2023-01-17T12:05:15.557Z,60.10
2023-01-17T12:07:09.457Z,60.20
2023-01-17T12:09:04.195Z,59.90
2023-01-17T12:10:54.095Z,59.80
2023-01-17T12:13:02.545Z,59.70
2023-01-17T12:14:54.765Z,59.70
2023-01-17T12:16:59.191Z,59.70
2023-01-17T12:18:46.760Z,59.70
2023-01-17T12:20:34.093Z,59.90
2023-01-17T12:22:29.575Z,59.80
2023-01-17T12:24:38.091Z,59.80
2023-01-17T12:26:28.102Z,59.40
2023-01-17T12:28:37.109Z,59.30
2023-01-17T12:30:55.622Z,59.00
2023-01-17T12:32:54.923Z,58.80
2023-01-17T12:34:35.399Z,58.70
2023-01-17T12:36:19.991Z,58.70
2023-01-17T12:38:05.491Z,58.60
2023-01-17T12:39:45.723Z,58.20
2023-01-17T12:41:26.497Z,58.00
2023-01-17T12:43:08.818Z,58.00
2023-01-17T12:44:54.933Z,57.50
2023-01-17T12:46:34.476Z,57.50
2023-01-17T12:48:13.780Z,57.20
2023-01-17T12:49:54.350Z,57.50
2023-01-17T12:51:33.508Z,57.40
2023-01-17T12:53:23.122Z,57.20
2023-01-17T12:55:02.868Z,57.20
2023-01-17T12:56:42.497Z,57.50
2023-01-17T12:58:26.839Z,57.60
2023-01-17T13:00:07.681Z,57.50
2023-01-17T13:01:43.051Z,57.60
2023-01-17T13:03:28.288Z,57.50
2023-01-17T13:05:11.564Z,57.30
2023-01-17T13:07:01.856Z,57.50
2023-01-17T13:08:42.254Z,57.60
2023-01-17T13:10:30.973Z,57.60
2023-01-17T13:12:12.035Z,57.60
2023-01-17T13:13:47.400Z,57.60
2023-01-17T13:15:26.489Z,57.60
2023-01-17T13:17:05.518Z,57.70
2023-01-17T13:18:45.146Z,57.70
2023-01-17T13:20:31.672Z,57.20
2023-01-17T13:22:07.868Z,56.90
2023-01-17T13:24:05.824Z,56.90
2023-01-17T13:25:49.291Z,57.10
2023-01-17T13:27:39.349Z,56.80
2023-01-17T13:29:30.989Z,56.80
2023-01-17T13:31:24.177Z,56.90
2023-01-17T13:33:29.499Z,57.00
2023-01-17T13:35:23.007Z,57.10
2023-01-17T13:37:31.705Z,57.20
2023-01-17T13:39:39.814Z,57.10
2023-01-17T13:41:44.208Z,57.10
2023-01-17T13:43:24.013Z,57.00
2023-01-17T13:44:58.050Z,56.70
2023-01-17T13:46:31.853Z,56.50
2023-01-17T13:48:32.987Z,56.40
2023-01-17T13:50:27.050Z,56.20
2023-01-17T13:52:10.886Z,56.40
2023-01-17T13:53:48.670Z,56.40
2023-01-17T13:55:47.847Z,56.60
2023-01-17T13:57:42.076Z,56.50
2023-01-17T13:59:31.487Z,56.60
2023-01-17T14:01:04.913Z,56.60
2023-01-17T14:02:40.032Z,56.70
2023-01-17T14:04:14.710Z,56.70
2023-01-17T14:05:49.149Z,56.60
2023-01-17T14:07:27.547Z,56.70
2023-01-17T14:09:05.938Z,56.60
2023-01-17T14:10:42.268Z,56.60
2023-01-17T14:12:33.710Z,56.50
2023-01-17T14:14:51.867Z,56.20
2023-01-17T14:16:29.534Z,56.40
2023-01-17T14:18:04.940Z,56.60
2023-01-17T14:19:39.114Z,56.70
2023-01-17T14:21:22.300Z,56.90
2023-01-17T14:22:59.802Z,57.10
2023-01-17T14:24:33.393Z,57.20
2023-01-17T14:26:34.061Z,57.30
2023-01-17T14:28:24.785Z,57.50
2023-01-17T14:30:00.521Z,57.60
2023-01-17T14:31:34.363Z,57.70
2023-01-17T14:33:16.453Z,57.60
2023-01-17T14:34:52.588Z,57.50
2023-01-17T14:36:34.485Z,57.70
2023-01-17T14:38:21.404Z,57.70
2023-01-17T14:39:54.721Z,57.70
2023-01-17T14:41:30.237Z,57.60
2023-01-17T14:43:11.336Z,57.60
2023-01-17T14:44:50.068Z,57.60
2023-01-17T14:46:28.626Z,57.60
2023-01-17T14:48:05.306Z,57.80
2023-01-17T14:49:38.496Z,58.00
2023-01-17T14:51:15.063Z,58.00
2023-01-17T14:52:48.817Z,58.20
2023-01-17T14:54:23.814Z,58.30
2023-01-17T14:56:01.585Z,58.40
2023-01-17T14:57:34.917Z,58.50
2023-01-17T14:59:17.401Z,58.40
2023-01-17T15:00:54.514Z,58.50
2023-01-17T15:02:27.938Z,58.50
2023-01-17T15:04:01.208Z,58.40
2023-01-17T15:05:35.018Z,58.50
2023-01-17T15:07:15.669Z,58.50
2023-01-17T15:08:51.736Z,58.50
2023-01-17T15:10:31.686Z,58.50
2023-01-17T15:12:09.366Z,58.50
2023-01-17T15:13:47.292Z,58.60
2023-01-17T15:15:38.223Z,58.50
2023-01-17T15:17:18.037Z,58.50
2023-01-17T15:18:52.512Z,58.60
2023-01-17T15:20:26.021Z,58.60
2023-01-17T15:21:59.666Z,58.50
2023-01-17T15:23:38.305Z,58.50
2023-01-17T15:25:15.469Z,58.60
2023-01-17T15:26:51.310Z,58.70
2023-01-17T15:28:25.729Z,58.70
2023-01-17T15:30:02.216Z,58.70
2023-01-17T15:31:42.873Z,58.70
2023-01-17T15:33:20.900Z,58.70
2023-01-17T15:34:54.335Z,58.60
2023-01-17T15:36:33.065Z,58.60
2023-01-17T15:38:06.614Z,58.70
2023-01-17T15:39:42.019Z,58.70
2023-01-17T15:41:18.817Z,58.80
2023-01-17T15:42:57.886Z,58.70
2023-01-17T15:44:47.618Z,58.70
2023-01-17T15:46:41.604Z,58.70
2023-01-17T15:48:41.804Z,58.60
2023-01-17T15:50:30.977Z,58.60
2023-01-17T15:52:17.209Z,58.50
2023-01-17T15:53:51.839Z,58.40
2023-01-17T15:55:30.641Z,58.30
2023-01-17T15:57:29.001Z,58.20
2023-01-17T15:59:43.692Z,58.20
2023-01-17T16:01:29.770Z,58.20
2023-01-17T16:03:15.237Z,58.20
2023-01-17T16:04:47.666Z,58.10
2023-01-17T16:06:36.650Z,58.10
2023-01-17T16:08:39.665Z,58.30
2023-01-17T16:10:18.656Z,58.30
2023-01-17T16:11:52.016Z,58.40
2023-01-17T16:13:25.755Z,58.30
2023-01-17T16:15:11.990Z,59.00
2023-01-17T16:16:54.175Z,58.50
2023-01-17T16:18:27.856Z,58.60
2023-01-17T16:20:01.597Z,58.60
2023-01-17T16:21:34.981Z,58.70
2023-01-17T16:23:10.693Z,58.60
2023-01-17T16:24:43.836Z,58.70
2023-01-17T16:26:18.267Z,58.70
2023-01-17T16:27:53.385Z,58.90
2023-01-17T16:29:27.090Z,58.90
2023-01-17T16:31:01.974Z,58.70
2023-01-17T16:32:35.275Z,58.80
2023-01-17T16:34:13.049Z,58.80
2023-01-17T16:35:46.347Z,58.80
2023-01-17T16:37:21.959Z,58.80
2023-01-17T16:38:55.510Z,58.90
2023-01-17T16:40:32.717Z,58.90
2023-01-17T16:42:06.714Z,59.10
2023-01-17T16:43:40.683Z,59.10
2023-01-17T16:45:15.295Z,59.10
2023-01-17T16:46:49.890Z,59.00
2023-01-17T16:48:23.441Z,59.10
2023-01-17T16:49:56.638Z,59.20
2023-01-17T16:51:30.125Z,59.00
2023-01-17T16:53:03.575Z,59.20
2023-01-17T16:54:37.511Z,59.10
2023-01-17T16:56:14.397Z,59.20
2023-01-17T16:57:47.700Z,59.30
2023-01-17T16:59:21.389Z,59.30
2023-01-17T17:00:59.191Z,59.30
2023-01-17T17:02:34.836Z,59.30
2023-01-17T17:04:08.215Z,59.40
2023-01-17T17:05:41.435Z,59.50
2023-01-17T17:07:14.703Z,59.50
2023-01-17T17:08:48.726Z,59.50
2023-01-17T17:10:25.397Z,59.70
2023-01-17T17:11:58.650Z,59.60
2023-01-17T17:13:35.446Z,59.60
2023-01-17T17:15:10.702Z,59.70
2023-01-17T17:16:44.359Z,59.80
2023-01-17T17:18:19.734Z,59.80
2023-01-17T17:19:52.948Z,59.80
2023-01-17T17:21:27.494Z,59.70
2023-01-17T17:23:00.594Z,59.80
2023-01-17T17:24:34.619Z,59.70
2023-01-17T17:26:07.925Z,59.70
2023-01-17T17:27:41.138Z,59.70
2023-01-17T17:29:15.954Z,59.80
2023-01-17T17:30:49.451Z,59.80
2023-01-17T17:32:23.484Z,59.70
2023-01-17T17:34:02.363Z,59.90
2023-01-17T17:35:36.108Z,59.90
2023-01-17T17:37:10.276Z,59.90
2023-01-17T17:38:51.536Z,59.90
2023-01-17T17:40:24.697Z,59.90
2023-01-17T17:41:58.490Z,59.90
2023-01-17T17:43:31.637Z,59.80
2023-01-17T17:45:05.974Z,59.80
2023-01-17T17:46:40.076Z,59.90
2023-01-17T17:48:13.492Z,59.90
2023-01-17T17:49:48.200Z,59.50
2023-01-17T17:51:27.250Z,59.70
2023-01-17T17:53:00.399Z,59.70
2023-01-17T17:54:34.077Z,59.70
2023-01-17T17:56:07.968Z,59.70
2023-01-17T17:57:41.580Z,59.80
2023-01-17T17:59:18.288Z,59.80
2023-01-17T18:00:51.859Z,59.90
2023-01-17T18:02:25.756Z,59.80
2023-01-17T18:04:03.424Z,59.90
2023-01-17T18:05:38.983Z,59.90
2023-01-17T18:07:12.225Z,59.90
2023-01-17T18:08:46.258Z,59.90
2023-01-17T18:10:20.543Z,60.00
2023-01-17T18:11:54.937Z,59.90
2023-01-17T18:13:28.808Z,59.90
2023-01-17T18:15:01.958Z,59.80
2023-01-17T18:16:41.361Z,59.90
2023-01-17T18:18:14.618Z,59.90
2023-01-17T18:19:48.198Z,59.90
2023-01-17T18:21:26.266Z,59.90
2023-01-17T18:22:59.715Z,59.90
2023-01-17T18:24:33.879Z,59.90
2023-01-17T18:26:08.113Z,59.90
2023-01-17T18:27:45.132Z,59.90
2023-01-17T18:29:20.810Z,59.80
2023-01-17T18:30:54.645Z,59.90
2023-01-17T18:32:27.907Z,59.80
2023-01-17T18:34:05.865Z,59.70
2023-01-17T18:35:39.000Z,59.80
2023-01-17T18:37:13.588Z,59.70
2023-01-17T18:38:52.190Z,59.70
2023-01-17T18:40:25.860Z,59.80
2023-01-17T18:41:59.614Z,59.80
2023-01-17T18:43:32.775Z,59.80
2023-01-17T18:45:07.951Z,59.80
2023-01-17T18:46:42.016Z,60.00
2023-01-17T18:48:15.236Z,60.00
2023-01-17T18:49:54.550Z,59.90
2023-01-17T18:51:32.443Z,59.80
2023-01-17T18:53:09.868Z,59.90
2023-01-17T18:54:43.411Z,59.70
2023-01-17T18:56:20.063Z,59.70
2023-01-17T18:57:53.537Z,59.70
2023-01-17T18:59:27.439Z,59.70
2023-01-17T19:01:10.769Z,59.70
2023-01-17T19:02:44.070Z,59.80
2023-01-17T19:04:18.735Z,59.80
2023-01-17T19:05:51.972Z,59.80
2023-01-17T19:07:30.510Z,59.80
2023-01-17T19:09:07.532Z,59.80
2023-01-17T19:10:41.217Z,60.00
2023-01-17T19:12:14.539Z,59.80
2023-01-17T19:13:48.697Z,59.80
2023-01-17T19:15:21.853Z,59.90
2023-01-17T19:16:56.065Z,59.80
2023-01-17T19:18:29.521Z,59.80
2023-01-17T19:20:02.765Z,59.70
2023-01-17T19:21:36.957Z,59.80
2023-01-17T19:23:10.611Z,60.50
2023-01-17T19:24:45.270Z,59.70
2023-01-17T19:26:20.290Z,59.80
2023-01-17T19:27:53.746Z,59.80
2023-01-17T19:29:27.183Z,59.80
2023-01-17T19:31:06.088Z,59.70
2023-01-17T19:32:39.631Z,59.70
2023-01-17T19:34:14.665Z,59.70
2023-01-17T19:35:47.701Z,59.60
2023-01-17T19:37:21.661Z,59.80
2023-01-17T19:39:04.510Z,59.70
2023-01-17T19:40:40.008Z,59.60
2023-01-17T19:42:15.454Z,59.40
2023-01-17T19:44:00.942Z,60.30
2023-01-17T19:45:34.136Z,59.60
2023-01-17T19:47:07.774Z,59.50
2023-01-17T19:48:41.492Z,59.40
2023-01-17T19:50:14.864Z,59.50
2023-01-17T19:51:49.388Z,59.50
2023-01-17T19:53:22.968Z,59.50
2023-01-17T19:54:56.566Z,59.60
2023-01-17T19:56:33.142Z,59.50
2023-01-17T19:58:06.591Z,59.60
2023-01-17T19:59:40.566Z,59.60
2023-01-17T20:01:16.813Z,59.60
2023-01-17T20:02:50.128Z,59.80
2023-01-17T20:04:23.610Z,59.60
2023-01-17T20:05:57.684Z,59.60
2023-01-17T20:07:33.787Z,59.70
2023-01-17T20:09:08.587Z,59.60
2023-01-17T20:10:42.043Z,59.60
2023-01-17T20:12:17.070Z,59.70
2023-01-17T20:13:54.918Z,59.70
2023-01-17T20:15:30.842Z,59.70
2023-01-17T20:17:04.448Z,59.60
2023-01-17T20:18:38.543Z,59.70
2023-01-17T20:20:13.875Z,59.70
2023-01-17T20:21:47.310Z,59.60
2023-01-17T20:23:23.793Z,59.60
2023-01-17T20:24:57.727Z,59.50
2023-01-17T20:26:35.530Z,59.80
2023-01-17T20:28:10.326Z,59.60
2023-01-17T20:29:46.515Z,59.60
2023-01-17T20:31:24.284Z,59.40
2023-01-17T20:32:57.858Z,59.60
2023-01-17T20:34:31.406Z,59.50
2023-01-17T20:36:10.649Z,59.50
2023-01-17T20:37:44.221Z,59.50
2023-01-17T20:39:17.938Z,59.50
2023-01-17T20:41:01.183Z,59.50
2023-01-17T20:42:37.098Z,59.40
2023-01-17T20:44:15.056Z,59.50
2023-01-17T20:45:56.563Z,59.50
2023-01-17T20:47:30.875Z,59.50
2023-01-17T20:49:07.962Z,59.40
2023-01-17T20:50:41.543Z,59.50
2023-01-17T20:52:18.024Z,59.40
2023-01-17T20:53:55.824Z,59.20
2023-01-17T20:55:32.574Z,59.50
2023-01-17T20:57:15.944Z,59.50
2023-01-17T20:58:51.549Z,59.50
2023-01-17T21:00:27.521Z,59.60
2023-01-17T21:02:01.558Z,59.70
2023-01-17T21:03:37.564Z,59.70
2023-01-17T21:05:12.726Z,59.90
2023-01-17T21:06:46.096Z,59.70
2023-01-17T21:08:19.580Z,59.90
2023-01-17T21:09:54.237Z,59.80
2023-01-17T21:11:28.596Z,59.80